Aérodrome :
LOGIN :

S'inscrire | Disclaimer

   EN    FR    IT 

 










Légende :    VFR   VFR Marginal   IFR   IFR Intensif   IFR Très Intensif
Visi : 
Plafond : 
>= 8 km
>= 3000ft
5 à 8 km
1000 à 3000 ft
1500m à 5 km
500 à 1000 ft
800 à 1500m
200 à 500 ft
< 800m
< 200 ft
Symboles :   Orages  Brouillard  Fortes neiges  Fortes précipitations  Vent > 20 kt
SIGMETs :   Divers  Orages  Givrage  Turbulence  Onde Orograph.  Cendres Volcan.






- Altitude de l'aérodrome : 512 ft
- Code IATA : URO


LFOP - Rouen Vallée de Seine

DERNIER METAR :
  • 271330Z AUTO 32020KT 290V350 9999 OVC019 06/03 Q1000 TEMPO 33020G35KT

METARs EXPIRÉS :
  • 271300Z AUTO 32022G35KT 9999 OVC016 06/03 Q0998 NOSIG
  • 271230Z AUTO 32021G34KT 9999 OVC013 05/04 Q0997 BECMG BKN020
  • 271200Z AUTO 32021G32KT 280V340 9999 OVC013 06/03 Q0995 TEMPO 33030G45KT BECMG BKN020
  • 271130Z AUTO 32030G42KT 9999 SCT008 OVC014 07/05 Q0992
  • 271100Z AUTO 27014KT 250V310 9999 BKN007 OVC012 09/09 Q0989 BECMG 31020G35KT BKN016

TAF TAF LFOP
Valide du 27 à 12h jusqu'au 28 à 12h UTC


271100Z 2712/2812 33020G35KT 9999 OVC010
TEMPO 2712/2713 33030G45KT
BECMG 2712/2714 BKN020
BECMG 2715/2718 31013KT
BECMG 2718/2720 24005KT
BECMG 2809/2811 17015KT RA OVC012
ATIS : +33 2 35 80 80 34
Météo : +33 2 32 86 52 80



MET'MAP, la Météo Aéronautique d'un coup d'oeil ! - Copyright ORBIFLY Décembre 2007 - Disclaimer

ORBIFLY MET'MAP TEAM :

Programmation & Développement : Alexandra Zaïnal
Sur une idée originale de : Baudouin d'Aumeries
Assistance à la programmation : Marc-Olivier Méhu
Soutien technique & logistique : Manuel Goepfert

Contact : metmap@orbifly.com




SOURCES & CREDITS :

   NOAA